createdAt,value
2018-10-21T00:02:19.841Z,73.84
2018-10-21T00:05:23.933Z,73.58
2018-10-21T00:08:28.067Z,74.23
2018-10-21T00:11:32.210Z,74.26
2018-10-21T00:14:36.363Z,74.19
2018-10-21T00:17:40.494Z,74.03
2018-10-21T00:20:44.682Z,74.51
2018-10-21T00:23:48.808Z,74.03
2018-10-21T00:26:52.958Z,74.20
2018-10-21T00:29:57.121Z,73.99
2018-10-21T00:33:01.301Z,74.60
2018-10-21T00:36:05.904Z,74.46
2018-10-21T00:39:12.322Z,75.04
2018-10-21T00:42:16.378Z,74.66
2018-10-21T00:45:20.583Z,75.21
2018-10-21T00:48:24.687Z,75.84
2018-10-21T00:51:28.774Z,76.60
2018-10-21T00:54:32.879Z,77.25
2018-10-21T00:57:36.974Z,76.31
2018-10-21T01:00:41.077Z,76.67
2018-10-21T01:03:45.162Z,76.16
2018-10-21T01:06:49.279Z,75.48
2018-10-21T01:09:53.381Z,75.24
2018-10-21T01:12:57.481Z,75.40
2018-10-21T01:16:01.743Z,74.95
2018-10-21T01:19:06.274Z,75.00
2018-10-21T01:22:10.384Z,75.40
2018-10-21T01:25:14.503Z,74.89
2018-10-21T01:28:18.599Z,75.92
2018-10-21T01:31:22.703Z,75.38
2018-10-21T01:34:27.002Z,75.08
2018-10-21T01:37:31.107Z,74.25
2018-10-21T01:40:37.187Z,74.60
2018-10-21T01:43:41.291Z,74.32
2018-10-21T01:46:45.386Z,74.87
2018-10-21T01:49:49.539Z,74.70
2018-10-21T01:52:54.375Z,74.28
2018-10-21T01:55:58.518Z,74.47
2018-10-21T01:59:02.663Z,74.93
2018-10-21T02:02:06.811Z,75.33
2018-10-21T02:05:10.956Z,74.37
2018-10-21T02:08:15.093Z,74.71
2018-10-21T02:11:19.225Z,75.98
2018-10-21T02:14:23.367Z,74.59
2018-10-21T02:17:27.525Z,75.05
2018-10-21T02:20:31.670Z,75.69
2018-10-21T02:23:35.881Z,75.18
2018-10-21T02:26:40.048Z,75.06
2018-10-21T02:29:44.482Z,74.89
2018-10-21T02:32:49.325Z,75.28
2018-10-21T02:35:53.463Z,76.22
2018-10-21T02:38:57.654Z,74.85
2018-10-21T02:42:01.744Z,75.58
2018-10-21T02:45:06.023Z,75.46
2018-10-21T02:48:10.130Z,75.94
2018-10-21T02:51:14.396Z,75.82
2018-10-21T02:54:22.639Z,74.08
2018-10-21T02:57:26.771Z,75.61
2018-10-21T03:00:30.916Z,75.90
2018-10-21T03:03:35.060Z,75.30
2018-10-21T03:06:39.198Z,74.64
2018-10-21T03:09:43.328Z,74.56
2018-10-21T03:12:47.466Z,75.41
2018-10-21T03:15:51.596Z,74.80
2018-10-21T03:18:55.752Z,75.16
2018-10-21T03:21:59.891Z,75.92
2018-10-21T03:25:04.043Z,75.96
2018-10-21T03:28:08.186Z,75.17
2018-10-21T03:31:12.390Z,76.45
2018-10-21T03:34:16.514Z,76.22
2018-10-21T03:37:20.659Z,75.70
2018-10-21T03:40:24.807Z,75.08
2018-10-21T03:43:28.956Z,75.68
2018-10-21T03:46:33.086Z,75.42
2018-10-21T03:49:37.242Z,76.03
2018-10-21T03:52:41.389Z,76.78
2018-10-21T03:55:45.561Z,75.96
2018-10-21T03:58:49.702Z,75.52
2018-10-21T04:01:53.850Z,76.37
2018-10-21T04:04:57.997Z,76.03
2018-10-21T04:08:02.131Z,76.00
2018-10-21T04:11:06.390Z,75.33
2018-10-21T04:14:10.523Z,76.35
2018-10-21T04:17:14.662Z,75.45
2018-10-21T04:20:18.785Z,74.46
2018-10-21T04:23:22.925Z,75.24
2018-10-21T04:26:27.078Z,75.39
2018-10-21T04:29:31.227Z,75.46
2018-10-21T04:32:36.350Z,76.05
2018-10-21T04:35:40.570Z,75.77
2018-10-21T04:40:09.183Z,74.70
2018-10-21T04:43:13.385Z,74.35
2018-10-21T04:46:17.611Z,75.02
2018-10-21T04:49:21.697Z,74.75
2018-10-21T04:52:26.190Z,75.85
2018-10-21T04:55:30.345Z,75.05
2018-10-21T04:58:34.474Z,75.64
2018-10-21T05:01:38.622Z,76.32
2018-10-21T05:04:42.767Z,76.49
2018-10-21T05:07:46.927Z,76.11
2018-10-21T05:10:51.074Z,75.92
2018-10-21T05:13:55.222Z,76.52
2018-10-21T05:16:59.374Z,77.17
2018-10-21T05:20:03.519Z,77.32
2018-10-21T05:23:07.661Z,77.06
2018-10-21T05:26:11.794Z,77.04
2018-10-21T05:29:15.938Z,77.63
2018-10-21T05:32:20.096Z,78.42
2018-10-21T05:35:24.233Z,79.11
2018-10-21T05:38:28.370Z,79.08
2018-10-21T05:41:32.499Z,79.51
2018-10-21T05:44:36.645Z,79.19
2018-10-21T05:47:41.207Z,78.89
2018-10-21T05:50:45.372Z,78.63
2018-10-21T05:53:49.518Z,78.82
2018-10-21T05:56:53.646Z,76.90
2018-10-21T05:59:57.850Z,78.45
2018-10-21T06:03:02.155Z,78.52
2018-10-21T06:06:06.190Z,79.46
2018-10-21T06:09:11.870Z,78.38
2018-10-21T06:12:16.031Z,77.46
2018-10-21T06:15:20.179Z,77.48
2018-10-21T06:18:26.582Z,77.60
2018-10-21T06:21:30.730Z,77.41
2018-10-21T06:24:34.885Z,77.77
2018-10-21T06:27:39.844Z,77.52
2018-10-21T06:30:43.978Z,77.96
2018-10-21T06:33:48.196Z,77.87
2018-10-21T06:36:52.380Z,77.92
2018-10-21T06:39:56.522Z,77.79
2018-10-21T06:43:00.658Z,77.14
2018-10-21T06:46:04.800Z,77.52
2018-10-21T06:49:09.020Z,78.22
2018-10-21T06:52:13.440Z,78.49
2018-10-21T06:55:17.584Z,79.50
2018-10-21T06:58:21.734Z,81.22
2018-10-21T07:01:25.890Z,81.12
2018-10-21T07:04:30.062Z,81.09
2018-10-21T07:07:34.190Z,81.03
2018-10-21T07:10:38.350Z,80.58
2018-10-21T07:13:42.717Z,81.41
2018-10-21T07:16:46.925Z,81.77
2018-10-21T07:19:51.022Z,81.23
2018-10-21T07:22:55.158Z,81.00
2018-10-21T07:25:59.494Z,81.52
2018-10-21T07:29:03.638Z,80.45
2018-10-21T07:32:07.794Z,79.96
2018-10-21T07:35:13.587Z,81.70
2018-10-21T07:38:17.721Z,81.15
2018-10-21T07:41:21.866Z,81.19
2018-10-21T07:44:26.020Z,80.17
2018-10-21T07:47:30.162Z,79.54
2018-10-21T07:50:34.306Z,79.10
2018-10-21T07:53:38.439Z,78.22
2018-10-21T07:56:42.581Z,77.71
2018-10-21T07:59:47.732Z,77.80
2018-10-21T08:02:51.870Z,78.93
2018-10-21T08:06:26.387Z,78.70
2018-10-21T08:09:30.529Z,79.03
2018-10-21T08:12:34.673Z,78.40
2018-10-21T08:15:39.191Z,78.29
2018-10-21T08:18:43.313Z,78.10
2018-10-21T08:21:47.450Z,77.74
2018-10-21T08:24:51.610Z,76.45
2018-10-21T08:27:55.769Z,76.76
2018-10-21T08:30:59.911Z,76.68
2018-10-21T08:34:04.100Z,77.65
2018-10-21T08:37:08.206Z,76.88
2018-10-21T08:40:12.415Z,75.09
2018-10-21T08:43:16.486Z,75.02
2018-10-21T08:46:20.731Z,74.55
2018-10-21T08:49:24.826Z,74.81
2018-10-21T08:52:28.949Z,75.42
2018-10-21T08:55:33.097Z,74.81
2018-10-21T08:58:37.250Z,74.52
2018-10-21T09:01:41.402Z,73.58
2018-10-21T09:04:45.562Z,73.41
2018-10-21T09:07:49.784Z,73.20
2018-10-21T09:10:53.951Z,73.24
2018-10-21T09:13:58.162Z,73.15
2018-10-21T09:17:02.269Z,71.49
2018-10-21T09:20:09.362Z,70.87
2018-10-21T09:23:13.506Z,65.91
2018-10-21T09:26:17.693Z,62.04
2018-10-21T09:29:21.838Z,61.46
2018-10-21T09:32:25.990Z,59.36
2018-10-21T09:35:30.142Z,57.58
2018-10-21T09:38:34.314Z,57.78
2018-10-21T09:41:38.477Z,58.46
2018-10-21T09:44:42.619Z,57.37
2018-10-21T09:47:46.861Z,55.80
2018-10-21T09:50:50.989Z,53.92
2018-10-21T09:53:55.140Z,55.33
2018-10-21T09:56:59.325Z,54.71
2018-10-21T10:00:03.455Z,53.96
2018-10-21T10:03:08.863Z,52.48
2018-10-21T10:06:13.021Z,52.11
2018-10-21T10:09:17.175Z,50.61
2018-10-21T10:12:21.334Z,50.06
2018-10-21T10:15:25.480Z,50.30
2018-10-21T10:18:29.680Z,51.04
2018-10-21T10:21:33.854Z,48.55
2018-10-21T10:24:38.006Z,48.40
2018-10-21T10:27:42.234Z,48.13
2018-10-21T10:30:46.403Z,48.85
2018-10-21T10:33:50.545Z,49.61
2018-10-21T10:36:54.750Z,48.33
2018-10-21T10:39:58.904Z,48.01
2018-10-21T10:43:03.024Z,46.43
2018-10-21T10:46:07.216Z,46.47
2018-10-21T10:49:11.375Z,47.29
2018-10-21T10:52:15.574Z,46.86
2018-10-21T10:55:19.642Z,45.54
2018-10-21T10:58:23.805Z,44.30
2018-10-21T11:01:27.938Z,42.92
2018-10-21T11:04:32.074Z,43.73
2018-10-21T11:07:36.226Z,43.75
2018-10-21T11:10:40.468Z,43.99
2018-10-21T11:13:44.602Z,42.34
2018-10-21T11:16:48.813Z,43.33
2018-10-21T11:19:52.938Z,41.61
2018-10-21T11:22:57.251Z,42.28
2018-10-21T11:26:01.527Z,43.67
2018-10-21T11:29:05.914Z,41.95
2018-10-21T11:32:10.110Z,40.55
2018-10-21T11:35:14.198Z,42.38
2018-10-21T11:38:18.444Z,40.96
2018-10-21T11:41:22.833Z,39.84
2018-10-21T11:44:26.958Z,40.34
2018-10-21T11:47:31.098Z,40.06
2018-10-21T11:50:35.259Z,39.26
2018-10-21T11:53:39.401Z,39.45
2018-10-21T11:56:43.556Z,37.61
2018-10-21T11:59:47.675Z,38.23
2018-10-21T12:02:51.812Z,37.98
2018-10-21T12:05:56.006Z,38.02
2018-10-21T12:09:00.188Z,36.73
2018-10-21T12:12:04.331Z,36.09
2018-10-21T12:15:08.570Z,35.73
2018-10-21T12:18:12.769Z,36.38
2018-10-21T12:21:17.022Z,36.24
2018-10-21T12:24:21.258Z,37.26
2018-10-21T12:27:26.124Z,36.24
2018-10-21T12:30:30.270Z,35.99
2018-10-21T12:33:38.660Z,36.47
2018-10-21T12:36:42.815Z,37.26
2018-10-21T12:39:47.119Z,37.64
2018-10-21T12:42:51.293Z,36.86
2018-10-21T12:45:55.522Z,37.08
2018-10-21T12:48:59.732Z,37.67
2018-10-21T12:52:03.855Z,37.26
2018-10-21T12:55:09.153Z,37.55
2018-10-21T12:58:13.382Z,35.56
2018-10-21T13:01:17.554Z,31.87
2018-10-21T13:04:21.602Z,30.47
2018-10-21T13:07:25.757Z,29.97
2018-10-21T13:10:29.909Z,29.27
2018-10-21T13:13:34.067Z,27.52
2018-10-21T13:16:38.252Z,25.68
2018-10-21T13:19:43.351Z,25.75
2018-10-21T13:22:47.425Z,25.22
2018-10-21T13:25:51.598Z,23.83
2018-10-21T13:28:55.834Z,23.90
2018-10-21T13:31:59.914Z,24.84
2018-10-21T13:35:04.058Z,25.63
2018-10-21T13:38:08.259Z,25.61
2018-10-21T13:41:12.430Z,24.58
2018-10-21T13:44:16.631Z,25.53
2018-10-21T13:47:20.840Z,25.93
2018-10-21T13:50:25.076Z,25.36
2018-10-21T13:53:29.322Z,25.19
2018-10-21T13:56:33.417Z,25.69
2018-10-21T13:59:37.563Z,26.02
2018-10-21T14:02:41.704Z,27.28
2018-10-21T14:05:45.841Z,26.66
2018-10-21T14:08:50.079Z,26.84
2018-10-21T14:11:54.258Z,28.13
2018-10-21T14:14:58.869Z,28.31
2018-10-21T14:18:02.955Z,28.51
2018-10-21T14:21:07.075Z,29.79
2018-10-21T14:24:11.319Z,30.71
2018-10-21T14:27:15.374Z,31.58
2018-10-21T14:30:19.559Z,32.55
2018-10-21T14:33:23.753Z,33.29
2018-10-21T14:36:27.898Z,33.77
2018-10-21T14:39:32.055Z,33.48
2018-10-21T14:42:36.251Z,34.22
2018-10-21T14:45:40.467Z,34.31
2018-10-21T14:48:44.590Z,35.29
2018-10-21T14:51:48.755Z,35.84
2018-10-21T14:54:52.891Z,35.17
2018-10-21T14:57:57.064Z,35.66
2018-10-21T15:01:01.198Z,35.77
2018-10-21T15:04:05.692Z,35.75
2018-10-21T15:07:09.826Z,37.21
2018-10-21T15:10:14.009Z,37.35
2018-10-21T15:13:18.210Z,36.42
2018-10-21T15:16:22.350Z,37.12
2018-10-21T15:19:26.513Z,38.41
2018-10-21T15:22:30.678Z,37.56
2018-10-21T15:25:34.824Z,37.34
2018-10-21T15:28:38.953Z,38.08
2018-10-21T15:31:43.077Z,38.53
2018-10-21T15:34:47.399Z,39.32
2018-10-21T15:37:51.396Z,38.04
2018-10-21T15:40:55.566Z,39.35
2018-10-21T15:43:59.789Z,38.83
2018-10-21T15:47:03.889Z,40.50
2018-10-21T15:50:08.479Z,40.90
2018-10-21T15:53:12.572Z,40.90
2018-10-21T15:56:16.837Z,41.30
2018-10-21T15:59:20.875Z,40.84
2018-10-21T16:02:25.139Z,40.16
2018-10-21T16:05:29.230Z,40.29
2018-10-21T16:08:33.367Z,40.07
2018-10-21T16:11:37.511Z,40.30
2018-10-21T16:14:41.669Z,39.80
2018-10-21T16:17:46.495Z,39.88
2018-10-21T16:20:50.765Z,40.32
2018-10-21T16:23:54.918Z,40.36
2018-10-21T16:26:59.199Z,40.71
2018-10-21T16:30:03.348Z,41.38
2018-10-21T16:33:07.478Z,41.37
2018-10-21T16:36:11.649Z,42.27
2018-10-21T16:39:15.930Z,42.63
2018-10-21T16:42:19.994Z,43.41
2018-10-21T16:45:24.205Z,44.93
2018-10-21T16:48:28.345Z,45.32
2018-10-21T16:51:32.601Z,46.17
2018-10-21T16:54:36.725Z,46.60
2018-10-21T16:57:40.901Z,48.34
2018-10-21T17:00:45.316Z,48.23
2018-10-21T17:03:49.541Z,48.73
2018-10-21T17:06:53.669Z,48.26
2018-10-21T17:09:58.387Z,48.45
2018-10-21T17:13:02.203Z,48.62
2018-10-21T17:16:07.977Z,49.48
2018-10-21T17:19:12.122Z,50.96
2018-10-21T17:22:16.361Z,51.02
2018-10-21T17:25:20.429Z,51.60
2018-10-21T17:28:24.699Z,51.33
2018-10-21T17:31:28.898Z,53.55
2018-10-21T17:34:33.115Z,53.74
2018-10-21T17:37:37.332Z,53.50
2018-10-21T17:40:41.579Z,52.95
2018-10-21T17:43:45.689Z,53.64
2018-10-21T17:46:49.858Z,53.36
2018-10-21T17:49:54.118Z,53.51
2018-10-21T17:52:58.345Z,53.50
2018-10-21T17:56:02.526Z,54.06
2018-10-21T17:59:06.792Z,54.68
2018-10-21T18:02:10.970Z,55.05
2018-10-21T18:05:15.479Z,55.13
2018-10-21T18:08:19.746Z,55.79
2018-10-21T18:11:24.160Z,55.55
2018-10-21T18:14:28.351Z,55.82
2018-10-21T18:17:32.518Z,56.10
2018-10-21T18:20:36.791Z,56.70
2018-10-21T18:23:40.925Z,56.80
2018-10-21T18:26:45.202Z,56.91
2018-10-21T18:29:49.405Z,57.00
2018-10-21T18:32:53.619Z,57.09
2018-10-21T18:35:57.729Z,57.74
2018-10-21T18:39:01.959Z,58.23
2018-10-21T18:42:06.462Z,58.12
2018-10-21T18:45:12.686Z,58.62
2018-10-21T18:48:16.889Z,59.58
2018-10-21T18:51:20.961Z,58.99
2018-10-21T18:54:25.123Z,59.43
2018-10-21T18:57:29.264Z,59.73
2018-10-21T19:00:33.429Z,60.34
2018-10-21T19:03:37.608Z,59.66
2018-10-21T19:06:41.754Z,60.64
2018-10-21T19:09:45.892Z,60.32
2018-10-21T19:13:00.046Z,59.73
2018-10-21T19:15:54.270Z,60.69
2018-10-21T19:18:58.622Z,60.18
2018-10-21T19:22:02.862Z,61.01
2018-10-21T19:25:09.132Z,60.89
2018-10-21T19:28:13.303Z,60.58
2018-10-21T19:31:17.525Z,61.69
2018-10-21T19:34:22.100Z,62.07
2018-10-21T19:37:26.106Z,61.64
2018-10-21T19:40:30.297Z,61.80
2018-10-21T19:43:34.483Z,62.62
2018-10-21T19:46:38.587Z,62.84
2018-10-21T19:49:42.738Z,62.02
2018-10-21T19:52:46.910Z,62.35
2018-10-21T19:55:51.062Z,62.63
2018-10-21T19:58:55.219Z,62.18
2018-10-21T20:01:59.392Z,62.74
2018-10-21T20:05:03.514Z,63.69
2018-10-21T20:08:09.190Z,63.07
2018-10-21T20:11:14.369Z,63.23
2018-10-21T20:14:19.593Z,63.72
2018-10-21T20:17:24.932Z,63.99
2018-10-21T20:20:30.058Z,64.28
2018-10-21T20:23:35.317Z,64.39
2018-10-21T20:26:39.475Z,64.32
2018-10-21T20:29:43.633Z,64.60
2018-10-21T20:32:47.932Z,64.92
2018-10-21T20:35:52.067Z,64.85
2018-10-21T20:38:56.307Z,65.16
2018-10-21T20:42:00.509Z,65.81
2018-10-21T20:45:04.603Z,65.55
2018-10-21T20:48:08.846Z,65.83
2018-10-21T20:51:12.924Z,65.65
2018-10-21T20:54:17.368Z,65.71
2018-10-21T20:57:21.670Z,65.12
2018-10-21T21:00:25.826Z,65.59
2018-10-21T21:03:30.137Z,65.75
2018-10-21T21:06:34.283Z,66.42
2018-10-21T21:09:39.387Z,66.63
2018-10-21T21:12:43.575Z,66.27
2018-10-21T21:15:47.805Z,66.46
2018-10-21T21:18:52.394Z,67.50
2018-10-21T21:21:56.800Z,67.34
2018-10-21T21:25:01.395Z,67.37
2018-10-21T21:28:07.805Z,67.46
2018-10-21T21:31:12.097Z,66.58
2018-10-21T21:34:16.924Z,66.97
2018-10-21T21:37:20.975Z,67.56
2018-10-21T21:40:25.226Z,66.83
2018-10-21T21:43:29.746Z,67.12
2018-10-21T21:46:34.041Z,67.82
2018-10-21T21:49:38.174Z,68.00
2018-10-21T21:52:42.311Z,68.10
2018-10-21T21:55:46.474Z,67.44
2018-10-21T21:58:50.683Z,68.17
2018-10-21T22:01:54.950Z,67.99
2018-10-21T22:04:59.182Z,67.99
2018-10-21T22:08:03.362Z,68.68
2018-10-21T22:11:07.458Z,68.46
2018-10-21T22:14:11.827Z,69.36
2018-10-21T22:17:15.984Z,69.02
2018-10-21T22:20:20.126Z,67.89
2018-10-21T22:23:24.368Z,68.01
2018-10-21T22:26:28.507Z,68.87
2018-10-21T22:29:32.647Z,68.90
2018-10-21T22:32:36.852Z,69.58
2018-10-21T22:35:40.973Z,68.56
2018-10-21T22:38:45.111Z,68.53
2018-10-21T22:41:49.261Z,68.19
2018-10-21T22:44:53.400Z,68.25
2018-10-21T22:47:57.537Z,69.18
2018-10-21T22:51:01.678Z,68.86
2018-10-21T22:54:05.949Z,69.05
2018-10-21T22:57:15.433Z,69.61
2018-10-21T23:00:19.614Z,69.17
2018-10-21T23:03:23.712Z,69.93
2018-10-21T23:06:27.851Z,69.96
2018-10-21T23:09:31.986Z,70.12
2018-10-21T23:12:36.115Z,69.72
2018-10-21T23:15:40.242Z,70.21
2018-10-21T23:18:44.469Z,70.01
2018-10-21T23:21:48.522Z,69.80
2018-10-21T23:24:52.649Z,69.61
2018-10-21T23:27:56.831Z,69.77
2018-10-21T23:31:00.942Z,69.34
2018-10-21T23:34:05.579Z,69.93
2018-10-21T23:37:09.654Z,69.73
2018-10-21T23:40:13.916Z,70.10
2018-10-21T23:43:17.950Z,69.89
2018-10-21T23:46:28.645Z,69.89
2018-10-21T23:49:32.792Z,70.31
2018-10-21T23:52:36.942Z,70.14
2018-10-21T23:55:41.078Z,70.21
2018-10-21T23:58:45.225Z,70.45
